sensor_id;sensor_type;location;lat;lon;timestamp;P1;durP1;ratioP1;P2;durP2;ratioP2
28078;SDS011;15388;42.238;24.684;2023-07-13T00:02:05;19.00;;;15.73;;
28078;SDS011;15388;42.238;24.684;2023-07-13T00:04:30;16.35;;;14.57;;
28078;SDS011;15388;42.238;24.684;2023-07-13T00:06:55;22.77;;;15.38;;
28078;SDS011;15388;42.238;24.684;2023-07-13T00:09:21;17.60;;;14.95;;
28078;SDS011;15388;42.238;24.684;2023-07-13T00:11:49;21.63;;;16.38;;
28078;SDS011;15388;42.238;24.684;2023-07-13T00:14:15;20.40;;;15.50;;
28078;SDS011;15388;42.238;24.684;2023-07-13T00:16:40;19.95;;;16.27;;
28078;SDS011;15388;42.238;24.684;2023-07-13T00:19:08;21.90;;;15.63;;
28078;SDS011;15388;42.238;24.684;2023-07-13T00:21:34;25.27;;;15.75;;
28078;SDS011;15388;42.238;24.684;2023-07-13T00:23:59;19.73;;;14.52;;
28078;SDS011;15388;42.238;24.684;2023-07-13T00:26:26;21.53;;;16.33;;
28078;SDS011;15388;42.238;24.684;2023-07-13T00:28:51;19.40;;;14.73;;
28078;SDS011;15388;42.238;24.684;2023-07-13T00:31:17;18.85;;;15.23;;
28078;SDS011;15388;42.238;24.684;2023-07-13T00:33:42;19.58;;;14.90;;
28078;SDS011;15388;42.238;24.684;2023-07-13T00:36:08;19.92;;;15.38;;
28078;SDS011;15388;42.238;24.684;2023-07-13T00:38:34;22.17;;;14.00;;
28078;SDS011;15388;42.238;24.684;2023-07-13T00:40:59;17.17;;;15.23;;
28078;SDS011;15388;42.238;24.684;2023-07-13T00:43:25;17.60;;;14.60;;
28078;SDS011;15388;42.238;24.684;2023-07-13T00:48:23;18.27;;;14.57;;
28078;SDS011;15388;42.238;24.684;2023-07-13T00:50:51;22.13;;;15.20;;
28078;SDS011;15388;42.238;24.684;2023-07-13T00:53:17;21.27;;;14.27;;
28078;SDS011;15388;42.238;24.684;2023-07-13T00:55:42;20.33;;;15.02;;
28078;SDS011;15388;42.238;24.684;2023-07-13T00:58:08;21.85;;;16.52;;
28078;SDS011;15388;42.238;24.684;2023-07-13T01:00:36;20.33;;;15.67;;
28078;SDS011;15388;42.238;24.684;2023-07-13T01:03:03;19.15;;;16.30;;
28078;SDS011;15388;42.238;24.684;2023-07-13T01:05:30;25.52;;;16.33;;
28078;SDS011;15388;42.238;24.684;2023-07-13T01:07:56;18.83;;;16.27;;
28078;SDS011;15388;42.238;24.684;2023-07-13T01:10:22;20.33;;;14.90;;
28078;SDS011;15388;42.238;24.684;2023-07-13T01:12:47;17.65;;;14.70;;
28078;SDS011;15388;42.238;24.684;2023-07-13T01:17:56;21.20;;;15.60;;
28078;SDS011;15388;42.238;24.684;2023-07-13T01:20:22;16.93;;;15.20;;
28078;SDS011;15388;42.238;24.684;2023-07-13T01:22:47;20.60;;;15.97;;
28078;SDS011;15388;42.238;24.684;2023-07-13T01:25:13;20.23;;;15.40;;
28078;SDS011;15388;42.238;24.684;2023-07-13T01:27:38;23.52;;;15.80;;
28078;SDS011;15388;42.238;24.684;2023-07-13T01:30:06;23.05;;;16.98;;
28078;SDS011;15388;42.238;24.684;2023-07-13T01:32:31;20.48;;;15.60;;
28078;SDS011;15388;42.238;24.684;2023-07-13T01:34:57;21.73;;;16.33;;
28078;SDS011;15388;42.238;24.684;2023-07-13T01:37:24;20.50;;;16.90;;
28078;SDS011;15388;42.238;24.684;2023-07-13T01:39:49;19.20;;;17.03;;
28078;SDS011;15388;42.238;24.684;2023-07-13T01:42:14;23.60;;;15.50;;
28078;SDS011;15388;42.238;24.684;2023-07-13T01:44:40;30.37;;;16.60;;
28078;SDS011;15388;42.238;24.684;2023-07-13T01:47:05;24.08;;;16.67;;
28078;SDS011;15388;42.238;24.684;2023-07-13T01:49:31;18.75;;;15.98;;
28078;SDS011;15388;42.238;24.684;2023-07-13T01:51:56;24.13;;;16.05;;
28078;SDS011;15388;42.238;24.684;2023-07-13T01:54:21;19.10;;;16.13;;
28078;SDS011;15388;42.238;24.684;2023-07-13T01:56:47;17.13;;;14.18;;
28078;SDS011;15388;42.238;24.684;2023-07-13T01:59:12;20.95;;;16.73;;
28078;SDS011;15388;42.238;24.684;2023-07-13T02:01:37;18.38;;;14.45;;
28078;SDS011;15388;42.238;24.684;2023-07-13T02:04:03;25.03;;;15.63;;
28078;SDS011;15388;42.238;24.684;2023-07-13T02:06:28;18.13;;;15.43;;
28078;SDS011;15388;42.238;24.684;2023-07-13T02:08:53;21.55;;;16.73;;
28078;SDS011;15388;42.238;24.684;2023-07-13T02:11:19;22.98;;;16.25;;
28078;SDS011;15388;42.238;24.684;2023-07-13T02:13:44;16.70;;;15.00;;
28078;SDS011;15388;42.238;24.684;2023-07-13T02:16:09;32.23;;;16.23;;
28078;SDS011;15388;42.238;24.684;2023-07-13T02:18:34;37.53;;;17.05;;
28078;SDS011;15388;42.238;24.684;2023-07-13T02:21:00;32.63;;;16.25;;
28078;SDS011;15388;42.238;24.684;2023-07-13T02:23:25;30.65;;;16.50;;
28078;SDS011;15388;42.238;24.684;2023-07-13T02:25:54;31.30;;;16.60;;
28078;SDS011;15388;42.238;24.684;2023-07-13T02:28:19;26.02;;;16.60;;
28078;SDS011;15388;42.238;24.684;2023-07-13T02:30:44;37.70;;;18.13;;
28078;SDS011;15388;42.238;24.684;2023-07-13T02:33:10;22.40;;;16.90;;
28078;SDS011;15388;42.238;24.684;2023-07-13T02:35:35;32.57;;;18.77;;
28078;SDS011;15388;42.238;24.684;2023-07-13T02:38:00;21.98;;;18.10;;
28078;SDS011;15388;42.238;24.684;2023-07-13T02:40:25;22.03;;;16.57;;
28078;SDS011;15388;42.238;24.684;2023-07-13T02:42:51;21.05;;;16.63;;
28078;SDS011;15388;42.238;24.684;2023-07-13T02:45:16;26.37;;;18.50;;
28078;SDS011;15388;42.238;24.684;2023-07-13T02:47:41;22.45;;;17.92;;
28078;SDS011;15388;42.238;24.684;2023-07-13T02:50:07;22.27;;;17.52;;
28078;SDS011;15388;42.238;24.684;2023-07-13T02:52:33;26.05;;;16.27;;
28078;SDS011;15388;42.238;24.684;2023-07-13T02:54:58;114.40;;;23.13;;
28078;SDS011;15388;42.238;24.684;2023-07-13T02:57:23;63.83;;;20.27;;
28078;SDS011;15388;42.238;24.684;2023-07-13T02:59:49;31.58;;;18.65;;
28078;SDS011;15388;42.238;24.684;2023-07-13T03:02:15;26.37;;;17.43;;
28078;SDS011;15388;42.238;24.684;2023-07-13T03:04:40;26.27;;;17.65;;
28078;SDS011;15388;42.238;24.684;2023-07-13T03:07:06;26.95;;;18.17;;
28078;SDS011;15388;42.238;24.684;2023-07-13T03:09:32;27.95;;;17.05;;
28078;SDS011;15388;42.238;24.684;2023-07-13T03:11:58;24.83;;;17.60;;
28078;SDS011;15388;42.238;24.684;2023-07-13T03:14:23;26.20;;;18.00;;
28078;SDS011;15388;42.238;24.684;2023-07-13T03:16:48;24.17;;;17.03;;
28078;SDS011;15388;42.238;24.684;2023-07-13T03:19:15;24.58;;;17.27;;
28078;SDS011;15388;42.238;24.684;2023-07-13T03:21:40;23.05;;;18.10;;
28078;SDS011;15388;42.238;24.684;2023-07-13T03:24:05;20.50;;;18.17;;
28078;SDS011;15388;42.238;24.684;2023-07-13T03:26:31;23.40;;;17.67;;
28078;SDS011;15388;42.238;24.684;2023-07-13T03:28:57;26.67;;;20.05;;
28078;SDS011;15388;42.238;24.684;2023-07-13T03:31:24;23.60;;;19.83;;
28078;SDS011;15388;42.238;24.684;2023-07-13T03:33:49;24.30;;;18.70;;
28078;SDS011;15388;42.238;24.684;2023-07-13T03:36:19;28.55;;;19.55;;
28078;SDS011;15388;42.238;24.684;2023-07-13T03:38:45;27.67;;;18.75;;
28078;SDS011;15388;42.238;24.684;2023-07-13T03:41:11;30.60;;;19.55;;
28078;SDS011;15388;42.238;24.684;2023-07-13T03:43:36;27.50;;;19.70;;
28078;SDS011;15388;42.238;24.684;2023-07-13T03:46:01;25.50;;;20.70;;
28078;SDS011;15388;42.238;24.684;2023-07-13T03:48:27;28.83;;;20.40;;
28078;SDS011;15388;42.238;24.684;2023-07-13T03:50:52;37.13;;;20.77;;
28078;SDS011;15388;42.238;24.684;2023-07-13T03:53:17;30.33;;;18.47;;
28078;SDS011;15388;42.238;24.684;2023-07-13T03:55:45;52.47;;;22.13;;
28078;SDS011;15388;42.238;24.684;2023-07-13T03:58:27;24.92;;;19.33;;
28078;SDS011;15388;42.238;24.684;2023-07-13T04:00:53;24.38;;;18.92;;
28078;SDS011;15388;42.238;24.684;2023-07-13T04:03:22;27.67;;;20.10;;
28078;SDS011;15388;42.238;24.684;2023-07-13T04:05:47;48.28;;;21.58;;
28078;SDS011;15388;42.238;24.684;2023-07-13T04:08:13;33.87;;;19.10;;
28078;SDS011;15388;42.238;24.684;2023-07-13T04:10:38;30.70;;;19.23;;
28078;SDS011;15388;42.238;24.684;2023-07-13T04:13:04;27.45;;;19.67;;
28078;SDS011;15388;42.238;24.684;2023-07-13T04:15:30;33.33;;;18.98;;
28078;SDS011;15388;42.238;24.684;2023-07-13T04:17:55;25.92;;;19.08;;
28078;SDS011;15388;42.238;24.684;2023-07-13T04:20:21;39.05;;;20.75;;
28078;SDS011;15388;42.238;24.684;2023-07-13T04:22:46;36.35;;;19.33;;
28078;SDS011;15388;42.238;24.684;2023-07-13T04:25:12;26.38;;;20.33;;
28078;SDS011;15388;42.238;24.684;2023-07-13T04:27:37;27.43;;;19.60;;
28078;SDS011;15388;42.238;24.684;2023-07-13T04:30:04;241.20;;;38.03;;
28078;SDS011;15388;42.238;24.684;2023-07-13T04:32:30;30.75;;;20.67;;
28078;SDS011;15388;42.238;24.684;2023-07-13T04:34:55;24.42;;;19.88;;
28078;SDS011;15388;42.238;24.684;2023-07-13T04:37:22;26.98;;;20.45;;
28078;SDS011;15388;42.238;24.684;2023-07-13T04:39:47;35.00;;;20.60;;
28078;SDS011;15388;42.238;24.684;2023-07-13T04:42:12;30.97;;;20.07;;
28078;SDS011;15388;42.238;24.684;2023-07-13T04:44:38;28.90;;;21.85;;
28078;SDS011;15388;42.238;24.684;2023-07-13T04:47:03;25.00;;;19.93;;
28078;SDS011;15388;42.238;24.684;2023-07-13T04:49:28;26.92;;;20.23;;
28078;SDS011;15388;42.238;24.684;2023-07-13T04:51:53;23.67;;;19.10;;
28078;SDS011;15388;42.238;24.684;2023-07-13T04:54:20;31.90;;;20.33;;
28078;SDS011;15388;42.238;24.684;2023-07-13T04:56:45;22.73;;;17.98;;
28078;SDS011;15388;42.238;24.684;2023-07-13T04:59:10;30.73;;;19.03;;
28078;SDS011;15388;42.238;24.684;2023-07-13T05:01:35;23.47;;;19.77;;
28078;SDS011;15388;42.238;24.684;2023-07-13T05:04:00;24.50;;;19.70;;
28078;SDS011;15388;42.238;24.684;2023-07-13T05:06:26;26.67;;;19.23;;
28078;SDS011;15388;42.238;24.684;2023-07-13T05:08:51;23.80;;;18.92;;
28078;SDS011;15388;42.238;24.684;2023-07-13T05:11:17;23.23;;;19.20;;
28078;SDS011;15388;42.238;24.684;2023-07-13T05:13:43;43.63;;;19.10;;
28078;SDS011;15388;42.238;24.684;2023-07-13T05:16:08;68.65;;;23.92;;
28078;SDS011;15388;42.238;24.684;2023-07-13T05:18:33;24.90;;;18.53;;
28078;SDS011;15388;42.238;24.684;2023-07-13T05:21:06;31.10;;;18.90;;
28078;SDS011;15388;42.238;24.684;2023-07-13T05:23:32;35.88;;;18.42;;
28078;SDS011;15388;42.238;24.684;2023-07-13T05:25:58;45.78;;;17.98;;
28078;SDS011;15388;42.238;24.684;2023-07-13T05:28:24;24.08;;;17.92;;
28078;SDS011;15388;42.238;24.684;2023-07-13T05:30:49;21.90;;;16.92;;
28078;SDS011;15388;42.238;24.684;2023-07-13T05:33:16;23.83;;;17.95;;
28078;SDS011;15388;42.238;24.684;2023-07-13T05:35:42;22.33;;;16.80;;
28078;SDS011;15388;42.238;24.684;2023-07-13T05:38:07;23.93;;;18.30;;
28078;SDS011;15388;42.238;24.684;2023-07-13T05:40:32;22.33;;;17.53;;
28078;SDS011;15388;42.238;24.684;2023-07-13T05:42:57;22.02;;;17.48;;
28078;SDS011;15388;42.238;24.684;2023-07-13T05:45:23;28.07;;;16.87;;
28078;SDS011;15388;42.238;24.684;2023-07-13T05:47:48;21.60;;;15.70;;
28078;SDS011;15388;42.238;24.684;2023-07-13T05:50:13;23.90;;;16.90;;
28078;SDS011;15388;42.238;24.684;2023-07-13T05:52:38;21.17;;;17.50;;
28078;SDS011;15388;42.238;24.684;2023-07-13T05:55:04;28.17;;;17.83;;
28078;SDS011;15388;42.238;24.684;2023-07-13T05:57:30;25.73;;;16.50;;
28078;SDS011;15388;42.238;24.684;2023-07-13T05:59:55;14.73;;;12.63;;
28078;SDS011;15388;42.238;24.684;2023-07-13T06:02:20;52.20;;;14.23;;
28078;SDS011;15388;42.238;24.684;2023-07-13T06:04:46;41.72;;;14.20;;
28078;SDS011;15388;42.238;24.684;2023-07-13T06:07:11;50.57;;;16.33;;
28078;SDS011;15388;42.238;24.684;2023-07-13T06:09:36;21.30;;;12.48;;
28078;SDS011;15388;42.238;24.684;2023-07-13T06:12:01;18.77;;;13.00;;
28078;SDS011;15388;42.238;24.684;2023-07-13T06:14:27;25.90;;;14.27;;
28078;SDS011;15388;42.238;24.684;2023-07-13T06:16:52;20.90;;;12.40;;
28078;SDS011;15388;42.238;24.684;2023-07-13T06:19:17;19.30;;;14.00;;
28078;SDS011;15388;42.238;24.684;2023-07-13T06:21:42;24.23;;;13.90;;
28078;SDS011;15388;42.238;24.684;2023-07-13T06:24:08;16.37;;;13.37;;
28078;SDS011;15388;42.238;24.684;2023-07-13T06:26:33;18.90;;;12.87;;
28078;SDS011;15388;42.238;24.684;2023-07-13T06:28:58;16.90;;;12.07;;
28078;SDS011;15388;42.238;24.684;2023-07-13T06:31:23;40.55;;;13.80;;
28078;SDS011;15388;42.238;24.684;2023-07-13T06:33:49;15.70;;;10.93;;
28078;SDS011;15388;42.238;24.684;2023-07-13T06:36:14;11.87;;;10.67;;
28078;SDS011;15388;42.238;24.684;2023-07-13T06:38:39;15.15;;;11.38;;
28078;SDS011;15388;42.238;24.684;2023-07-13T06:41:05;31.30;;;13.37;;
28078;SDS011;15388;42.238;24.684;2023-07-13T06:43:31;15.05;;;11.38;;
28078;SDS011;15388;42.238;24.684;2023-07-13T06:45:57;12.40;;;11.10;;
28078;SDS011;15388;42.238;24.684;2023-07-13T06:48:22;21.23;;;11.95;;
28078;SDS011;15388;42.238;24.684;2023-07-13T06:50:48;11.27;;;9.73;;
28078;SDS011;15388;42.238;24.684;2023-07-13T06:55:39;11.57;;;10.38;;
28078;SDS011;15388;42.238;24.684;2023-07-13T06:58:05;11.57;;;10.40;;
28078;SDS011;15388;42.238;24.684;2023-07-13T07:00:31;11.38;;;10.27;;
28078;SDS011;15388;42.238;24.684;2023-07-13T07:02:56;11.68;;;10.30;;
28078;SDS011;15388;42.238;24.684;2023-07-13T07:05:22;15.20;;;11.32;;
28078;SDS011;15388;42.238;24.684;2023-07-13T07:07:50;14.15;;;12.65;;
28078;SDS011;15388;42.238;24.684;2023-07-13T07:10:16;13.63;;;12.30;;
28078;SDS011;15388;42.238;24.684;2023-07-13T07:12:42;18.42;;;12.07;;
28078;SDS011;15388;42.238;24.684;2023-07-13T07:15:07;12.83;;;11.53;;
28078;SDS011;15388;42.238;24.684;2023-07-13T07:17:32;14.90;;;11.68;;
28078;SDS011;15388;42.238;24.684;2023-07-13T07:19:58;17.05;;;11.80;;
28078;SDS011;15388;42.238;24.684;2023-07-13T07:22:23;17.15;;;11.93;;
28078;SDS011;15388;42.238;24.684;2023-07-13T07:24:52;14.95;;;11.35;;
28078;SDS011;15388;42.238;24.684;2023-07-13T07:27:17;13.48;;;10.75;;
28078;SDS011;15388;42.238;24.684;2023-07-13T07:29:42;13.15;;;11.23;;
28078;SDS011;15388;42.238;24.684;2023-07-13T07:32:08;13.90;;;10.90;;
28078;SDS011;15388;42.238;24.684;2023-07-13T07:34:33;12.73;;;11.27;;
28078;SDS011;15388;42.238;24.684;2023-07-13T07:36:59;14.10;;;11.73;;
28078;SDS011;15388;42.238;24.684;2023-07-13T07:39:25;13.38;;;10.52;;
28078;SDS011;15388;42.238;24.684;2023-07-13T07:41:51;14.50;;;10.77;;
28078;SDS011;15388;42.238;24.684;2023-07-13T07:44:16;17.00;;;10.33;;
28078;SDS011;15388;42.238;24.684;2023-07-13T07:46:41;10.07;;;9.15;;
28078;SDS011;15388;42.238;24.684;2023-07-13T07:49:06;10.90;;;8.07;;
28078;SDS011;15388;42.238;24.684;2023-07-13T07:51:32;10.60;;;9.57;;
28078;SDS011;15388;42.238;24.684;2023-07-13T07:53:57;11.13;;;7.97;;
28078;SDS011;15388;42.238;24.684;2023-07-13T07:56:22;11.20;;;8.53;;
28078;SDS011;15388;42.238;24.684;2023-07-13T07:58:48;9.47;;;8.57;;
28078;SDS011;15388;42.238;24.684;2023-07-13T08:01:13;9.03;;;8.13;;
28078;SDS011;15388;42.238;24.684;2023-07-13T08:03:38;12.80;;;8.67;;
28078;SDS011;15388;42.238;24.684;2023-07-13T08:06:04;10.70;;;7.83;;
28078;SDS011;15388;42.238;24.684;2023-07-13T08:08:30;9.17;;;8.37;;
28078;SDS011;15388;42.238;24.684;2023-07-13T08:10:55;9.38;;;8.43;;
28078;SDS011;15388;42.238;24.684;2023-07-13T08:13:20;10.27;;;9.00;;
28078;SDS011;15388;42.238;24.684;2023-07-13T08:15:46;9.13;;;7.87;;
28078;SDS011;15388;42.238;24.684;2023-07-13T08:18:11;8.07;;;7.27;;
28078;SDS011;15388;42.238;24.684;2023-07-13T08:20:37;10.03;;;7.93;;
28078;SDS011;15388;42.238;24.684;2023-07-13T08:23:03;13.45;;;8.02;;
28078;SDS011;15388;42.238;24.684;2023-07-13T08:25:28;14.77;;;7.73;;
28078;SDS011;15388;42.238;24.684;2023-07-13T08:27:55;11.55;;;7.28;;
28078;SDS011;15388;42.238;24.684;2023-07-13T08:30:20;11.33;;;8.80;;
28078;SDS011;15388;42.238;24.684;2023-07-13T08:32:45;9.37;;;8.20;;
28078;SDS011;15388;42.238;24.684;2023-07-13T08:35:11;10.03;;;7.13;;
28078;SDS011;15388;42.238;24.684;2023-07-13T08:37:36;9.87;;;8.87;;
28078;SDS011;15388;42.238;24.684;2023-07-13T08:40:02;11.60;;;8.20;;
28078;SDS011;15388;42.238;24.684;2023-07-13T08:42:31;10.37;;;8.17;;
28078;SDS011;15388;42.238;24.684;2023-07-13T08:45:08;27.60;;;9.48;;
28078;SDS011;15388;42.238;24.684;2023-07-13T08:47:37;11.88;;;8.20;;
28078;SDS011;15388;42.238;24.684;2023-07-13T08:50:04;9.23;;;7.78;;
28078;SDS011;15388;42.238;24.684;2023-07-13T08:54:56;9.20;;;7.27;;
28078;SDS011;15388;42.238;24.684;2023-07-13T08:57:25;9.30;;;7.57;;
28078;SDS011;15388;42.238;24.684;2023-07-13T08:59:55;8.93;;;6.28;;
28078;SDS011;15388;42.238;24.684;2023-07-13T09:02:23;8.33;;;7.50;;
28078;SDS011;15388;42.238;24.684;2023-07-13T09:04:59;11.65;;;7.47;;
28078;SDS011;15388;42.238;24.684;2023-07-13T09:12:39;11.70;;;7.73;;
28078;SDS011;15388;42.238;24.684;2023-07-13T09:15:07;10.02;;;7.63;;
28078;SDS011;15388;42.238;24.684;2023-07-13T09:17:44;20.80;;;8.43;;
28078;SDS011;15388;42.238;24.684;2023-07-13T09:22:54;11.30;;;7.00;;
28078;SDS011;15388;42.238;24.684;2023-07-13T09:27:45;7.20;;;6.50;;
28078;SDS011;15388;42.238;24.684;2023-07-13T09:32:41;9.40;;;5.72;;
28078;SDS011;15388;42.238;24.684;2023-07-13T09:35:12;7.00;;;5.38;;
28078;SDS011;15388;42.238;24.684;2023-07-13T09:37:38;7.32;;;5.85;;
28078;SDS011;15388;42.238;24.684;2023-07-13T09:40:05;8.15;;;5.60;;
28078;SDS011;15388;42.238;24.684;2023-07-13T09:42:34;9.02;;;6.30;;
28078;SDS011;15388;42.238;24.684;2023-07-13T09:45:00;6.00;;;5.30;;
28078;SDS011;15388;42.238;24.684;2023-07-13T09:47:28;9.77;;;6.55;;
28078;SDS011;15388;42.238;24.684;2023-07-13T09:50:01;7.00;;;5.35;;
28078;SDS011;15388;42.238;24.684;2023-07-13T09:52:27;5.30;;;4.53;;
28078;SDS011;15388;42.238;24.684;2023-07-13T09:54:53;10.48;;;5.55;;
28078;SDS011;15388;42.238;24.684;2023-07-13T09:57:23;9.48;;;5.28;;
28078;SDS011;15388;42.238;24.684;2023-07-13T09:59:51;6.75;;;5.65;;
28078;SDS011;15388;42.238;24.684;2023-07-13T10:02:23;8.45;;;5.85;;
28078;SDS011;15388;42.238;24.684;2023-07-13T10:04:53;8.23;;;6.05;;
28078;SDS011;15388;42.238;24.684;2023-07-13T10:07:22;8.32;;;5.38;;
28078;SDS011;15388;42.238;24.684;2023-07-13T10:09:47;6.78;;;5.95;;
28078;SDS011;15388;42.238;24.684;2023-07-13T10:12:16;10.05;;;6.22;;
28078;SDS011;15388;42.238;24.684;2023-07-13T10:17:12;16.67;;;6.17;;
28078;SDS011;15388;42.238;24.684;2023-07-13T10:19:38;24.38;;;8.27;;
28078;SDS011;15388;42.238;24.684;2023-07-13T10:24:35;8.10;;;6.00;;
28078;SDS011;15388;42.238;24.684;2023-07-13T10:29:53;7.30;;;5.53;;
28078;SDS011;15388;42.238;24.684;2023-07-13T10:32:17;9.40;;;5.70;;
28078;SDS011;15388;42.238;24.684;2023-07-13T10:34:44;14.50;;;5.53;;
28078;SDS011;15388;42.238;24.684;2023-07-13T10:37:15;33.80;;;7.40;;
28078;SDS011;15388;42.238;24.684;2023-07-13T10:39:41;20.02;;;6.85;;
28078;SDS011;15388;42.238;24.684;2023-07-13T10:42:08;6.87;;;6.27;;
28078;SDS011;15388;42.238;24.684;2023-07-13T10:44:37;9.27;;;6.35;;
28078;SDS011;15388;42.238;24.684;2023-07-13T10:47:04;7.80;;;6.20;;
28078;SDS011;15388;42.238;24.684;2023-07-13T10:49:31;12.18;;;7.03;;
28078;SDS011;15388;42.238;24.684;2023-07-13T10:52:00;12.35;;;5.60;;
28078;SDS011;15388;42.238;24.684;2023-07-13T10:54:34;6.83;;;6.13;;
28078;SDS011;15388;42.238;24.684;2023-07-13T10:57:14;13.02;;;5.68;;
28078;SDS011;15388;42.238;24.684;2023-07-13T10:59:41;14.63;;;6.60;;
28078;SDS011;15388;42.238;24.684;2023-07-13T11:02:11;8.53;;;6.07;;
28078;SDS011;15388;42.238;24.684;2023-07-13T11:04:47;9.00;;;6.30;;
28078;SDS011;15388;42.238;24.684;2023-07-13T11:07:23;10.77;;;6.45;;
28078;SDS011;15388;42.238;24.684;2023-07-13T11:09:52;8.07;;;5.90;;
28078;SDS011;15388;42.238;24.684;2023-07-13T11:22:44;8.90;;;6.25;;
28078;SDS011;15388;42.238;24.684;2023-07-13T11:25:21;10.75;;;6.78;;
28078;SDS011;15388;42.238;24.684;2023-07-13T11:28:04;7.03;;;5.78;;
28078;SDS011;15388;42.238;24.684;2023-07-13T11:38:39;11.80;;;6.32;;
28078;SDS011;15388;42.238;24.684;2023-07-13T11:43:42;8.48;;;6.32;;
28078;SDS011;15388;42.238;24.684;2023-07-13T11:46:21;11.93;;;5.97;;
28078;SDS011;15388;42.238;24.684;2023-07-13T11:48:46;14.80;;;6.82;;
28078;SDS011;15388;42.238;24.684;2023-07-13T11:53:44;7.05;;;5.45;;
28078;SDS011;15388;42.238;24.684;2023-07-13T11:56:10;10.30;;;7.05;;
28078;SDS011;15388;42.238;24.684;2023-07-13T11:58:35;9.27;;;6.63;;
28078;SDS011;15388;42.238;24.684;2023-07-13T12:01:02;8.70;;;5.83;;
28078;SDS011;15388;42.238;24.684;2023-07-13T12:03:29;10.15;;;6.55;;
28078;SDS011;15388;42.238;24.684;2023-07-13T12:06:02;12.63;;;6.13;;
28078;SDS011;15388;42.238;24.684;2023-07-13T12:08:28;8.23;;;6.30;;
28078;SDS011;15388;42.238;24.684;2023-07-13T12:10:58;13.37;;;5.87;;
28078;SDS011;15388;42.238;24.684;2023-07-13T12:13:23;24.27;;;7.60;;
28078;SDS011;15388;42.238;24.684;2023-07-13T12:15:49;12.77;;;6.40;;
28078;SDS011;15388;42.238;24.684;2023-07-13T12:18:15;10.47;;;5.73;;
28078;SDS011;15388;42.238;24.684;2023-07-13T12:20:41;12.93;;;5.63;;
28078;SDS011;15388;42.238;24.684;2023-07-13T12:23:10;15.03;;;6.23;;
28078;SDS011;15388;42.238;24.684;2023-07-13T12:25:39;12.95;;;6.22;;
28078;SDS011;15388;42.238;24.684;2023-07-13T12:28:21;9.85;;;5.85;;
28078;SDS011;15388;42.238;24.684;2023-07-13T12:30:47;13.15;;;6.35;;
28078;SDS011;15388;42.238;24.684;2023-07-13T12:33:13;14.20;;;5.75;;
28078;SDS011;15388;42.238;24.684;2023-07-13T12:35:47;8.38;;;6.07;;
28078;SDS011;15388;42.238;24.684;2023-07-13T12:38:13;14.70;;;6.80;;
28078;SDS011;15388;42.238;24.684;2023-07-13T12:40:38;9.95;;;5.85;;
28078;SDS011;15388;42.238;24.684;2023-07-13T12:43:05;13.15;;;5.68;;
28078;SDS011;15388;42.238;24.684;2023-07-13T12:45:35;14.68;;;6.40;;
28078;SDS011;15388;42.238;24.684;2023-07-13T12:48:05;9.90;;;6.43;;
28078;SDS011;15388;42.238;24.684;2023-07-13T12:50:36;17.05;;;6.00;;
28078;SDS011;15388;42.238;24.684;2023-07-13T12:53:03;11.25;;;6.03;;
28078;SDS011;15388;42.238;24.684;2023-07-13T12:55:29;10.57;;;6.03;;
28078;SDS011;15388;42.238;24.684;2023-07-13T12:57:58;25.13;;;7.40;;
28078;SDS011;15388;42.238;24.684;2023-07-13T13:00:25;14.45;;;5.57;;
28078;SDS011;15388;42.238;24.684;2023-07-13T13:02:52;18.40;;;5.07;;
28078;SDS011;15388;42.238;24.684;2023-07-13T13:07:43;14.02;;;6.80;;
28078;SDS011;15388;42.238;24.684;2023-07-13T13:10:11;9.30;;;5.57;;
28078;SDS011;15388;42.238;24.684;2023-07-13T13:12:37;16.60;;;7.43;;
28078;SDS011;15388;42.238;24.684;2023-07-13T13:15:03;22.15;;;5.72;;
28078;SDS011;15388;42.238;24.684;2023-07-13T13:17:32;14.45;;;5.20;;
28078;SDS011;15388;42.238;24.684;2023-07-13T13:19:57;15.57;;;5.93;;
28078;SDS011;15388;42.238;24.684;2023-07-13T13:22:23;10.40;;;5.07;;
28078;SDS011;15388;42.238;24.684;2023-07-13T13:24:48;12.05;;;5.07;;
28078;SDS011;15388;42.238;24.684;2023-07-13T13:27:15;12.33;;;5.53;;
28078;SDS011;15388;42.238;24.684;2023-07-13T13:29:40;21.00;;;6.25;;
28078;SDS011;15388;42.238;24.684;2023-07-13T13:32:09;17.25;;;6.53;;
28078;SDS011;15388;42.238;24.684;2023-07-13T13:34:34;15.77;;;5.72;;
28078;SDS011;15388;42.238;24.684;2023-07-13T13:39:27;10.27;;;5.60;;
28078;SDS011;15388;42.238;24.684;2023-07-13T13:41:53;13.93;;;5.43;;
28078;SDS011;15388;42.238;24.684;2023-07-13T13:46:44;13.17;;;5.67;;
28078;SDS011;15388;42.238;24.684;2023-07-13T13:49:14;20.13;;;6.40;;
28078;SDS011;15388;42.238;24.684;2023-07-13T13:51:41;18.38;;;5.47;;
28078;SDS011;15388;42.238;24.684;2023-07-13T13:56:31;14.63;;;5.72;;
28078;SDS011;15388;42.238;24.684;2023-07-13T13:58:58;17.20;;;6.13;;
28078;SDS011;15388;42.238;24.684;2023-07-13T14:01:23;46.73;;;8.70;;
28078;SDS011;15388;42.238;24.684;2023-07-13T14:06:16;14.02;;;6.45;;
28078;SDS011;15388;42.238;24.684;2023-07-13T14:11:09;17.50;;;5.37;;
28078;SDS011;15388;42.238;24.684;2023-07-13T14:13:36;19.77;;;8.02;;
28078;SDS011;15388;42.238;24.684;2023-07-13T14:16:04;20.35;;;7.30;;
28078;SDS011;15388;42.238;24.684;2023-07-13T14:18:32;26.75;;;7.03;;
28078;SDS011;15388;42.238;24.684;2023-07-13T14:20:58;11.30;;;6.40;;
28078;SDS011;15388;42.238;24.684;2023-07-13T14:23:23;17.03;;;6.93;;
28078;SDS011;15388;42.238;24.684;2023-07-13T14:25:49;22.57;;;7.80;;
28078;SDS011;15388;42.238;24.684;2023-07-13T14:28:18;9.73;;;5.80;;
28078;SDS011;15388;42.238;24.684;2023-07-13T14:30:44;11.25;;;5.80;;
28078;SDS011;15388;42.238;24.684;2023-07-13T14:33:11;14.27;;;5.50;;
28078;SDS011;15388;42.238;24.684;2023-07-13T14:35:36;17.42;;;6.65;;
28078;SDS011;15388;42.238;24.684;2023-07-13T14:38:02;25.45;;;6.72;;
28078;SDS011;15388;42.238;24.684;2023-07-13T14:40:29;12.33;;;5.67;;
28078;SDS011;15388;42.238;24.684;2023-07-13T14:42:55;11.88;;;5.90;;
28078;SDS011;15388;42.238;24.684;2023-07-13T14:45:20;12.77;;;5.47;;
28078;SDS011;15388;42.238;24.684;2023-07-13T14:47:46;30.63;;;6.20;;
28078;SDS011;15388;42.238;24.684;2023-07-13T14:50:15;22.20;;;6.85;;
28078;SDS011;15388;42.238;24.684;2023-07-13T14:52:41;23.45;;;6.25;;
28078;SDS011;15388;42.238;24.684;2023-07-13T14:55:13;23.27;;;6.20;;
28078;SDS011;15388;42.238;24.684;2023-07-13T14:57:39;17.15;;;6.03;;
28078;SDS011;15388;42.238;24.684;2023-07-13T15:00:08;21.40;;;4.97;;
28078;SDS011;15388;42.238;24.684;2023-07-13T15:02:37;19.35;;;6.70;;
28078;SDS011;15388;42.238;24.684;2023-07-13T15:05:05;17.17;;;5.25;;
28078;SDS011;15388;42.238;24.684;2023-07-13T15:07:36;15.82;;;5.90;;
28078;SDS011;15388;42.238;24.684;2023-07-13T15:10:04;19.90;;;6.30;;
28078;SDS011;15388;42.238;24.684;2023-07-13T15:12:31;22.45;;;7.43;;
28078;SDS011;15388;42.238;24.684;2023-07-13T15:14:56;15.00;;;6.23;;
28078;SDS011;15388;42.238;24.684;2023-07-13T15:17:24;15.93;;;5.47;;
28078;SDS011;15388;42.238;24.684;2023-07-13T15:19:51;18.38;;;5.65;;
28078;SDS011;15388;42.238;24.684;2023-07-13T15:22:16;22.67;;;6.23;;